sensor_id;sensor_type;location;lat;lon;timestamp;P1;durP1;ratioP1;P2;durP2;ratioP2
29214;SDS011;16252;49.816;7.964;2022-12-07T00:00:40;9.15;;;5.38;;
29214;SDS011;16252;49.816;7.964;2022-12-07T00:03:06;9.98;;;6.65;;
29214;SDS011;16252;49.816;7.964;2022-12-07T00:05:31;11.05;;;6.32;;
29214;SDS011;16252;49.816;7.964;2022-12-07T00:07:56;7.63;;;5.28;;
29214;SDS011;16252;49.816;7.964;2022-12-07T00:10:21;10.82;;;6.07;;
29214;SDS011;16252;49.816;7.964;2022-12-07T00:12:47;9.70;;;5.13;;
29214;SDS011;16252;49.816;7.964;2022-12-07T00:15:12;8.38;;;5.20;;
29214;SDS011;16252;49.816;7.964;2022-12-07T00:17:37;9.70;;;5.70;;
29214;SDS011;16252;49.816;7.964;2022-12-07T00:20:02;9.23;;;5.63;;
29214;SDS011;16252;49.816;7.964;2022-12-07T00:22:28;11.02;;;6.10;;
29214;SDS011;16252;49.816;7.964;2022-12-07T00:24:54;11.00;;;5.93;;
29214;SDS011;16252;49.816;7.964;2022-12-07T00:27:19;6.45;;;4.82;;
29214;SDS011;16252;49.816;7.964;2022-12-07T00:29:44;7.35;;;4.97;;
29214;SDS011;16252;49.816;7.964;2022-12-07T00:32:09;7.53;;;5.07;;
29214;SDS011;16252;49.816;7.964;2022-12-07T00:34:35;7.85;;;4.97;;
29214;SDS011;16252;49.816;7.964;2022-12-07T00:37:00;8.20;;;5.20;;
29214;SDS011;16252;49.816;7.964;2022-12-07T00:39:25;9.02;;;5.68;;
29214;SDS011;16252;49.816;7.964;2022-12-07T00:41:51;8.80;;;4.63;;
29214;SDS011;16252;49.816;7.964;2022-12-07T00:44:16;8.50;;;5.15;;
29214;SDS011;16252;49.816;7.964;2022-12-07T00:46:41;7.15;;;4.75;;
29214;SDS011;16252;49.816;7.964;2022-12-07T00:49:07;8.13;;;5.22;;
29214;SDS011;16252;49.816;7.964;2022-12-07T00:51:32;8.85;;;5.28;;
29214;SDS011;16252;49.816;7.964;2022-12-07T00:53:57;7.85;;;4.75;;
29214;SDS011;16252;49.816;7.964;2022-12-07T00:56:23;7.07;;;4.65;;
29214;SDS011;16252;49.816;7.964;2022-12-07T00:58:54;6.25;;;4.38;;
29214;SDS011;16252;49.816;7.964;2022-12-07T01:01:20;6.18;;;4.43;;
29214;SDS011;16252;49.816;7.964;2022-12-07T01:03:47;7.00;;;4.55;;
29214;SDS011;16252;49.816;7.964;2022-12-07T01:06:19;7.20;;;4.53;;
29214;SDS011;16252;49.816;7.964;2022-12-07T01:08:45;5.43;;;4.05;;
29214;SDS011;16252;49.816;7.964;2022-12-07T01:11:12;5.45;;;3.63;;
29214;SDS011;16252;49.816;7.964;2022-12-07T01:13:39;7.18;;;4.10;;
29214;SDS011;16252;49.816;7.964;2022-12-07T01:16:05;7.00;;;4.15;;
29214;SDS011;16252;49.816;7.964;2022-12-07T01:18:32;5.15;;;3.85;;
29214;SDS011;16252;49.816;7.964;2022-12-07T01:23:26;6.38;;;3.85;;
29214;SDS011;16252;49.816;7.964;2022-12-07T01:25:59;7.72;;;3.95;;
29214;SDS011;16252;49.816;7.964;2022-12-07T01:28:25;5.55;;;3.63;;
29214;SDS011;16252;49.816;7.964;2022-12-07T01:33:29;5.88;;;3.80;;
29214;SDS011;16252;49.816;7.964;2022-12-07T01:36:02;6.10;;;3.65;;
29214;SDS011;16252;49.816;7.964;2022-12-07T01:38:30;5.05;;;3.22;;
29214;SDS011;16252;49.816;7.964;2022-12-07T01:40:56;7.57;;;4.32;;
29214;SDS011;16252;49.816;7.964;2022-12-07T01:43:22;8.32;;;4.32;;
29214;SDS011;16252;49.816;7.964;2022-12-07T01:45:51;4.88;;;3.47;;
29214;SDS011;16252;49.816;7.964;2022-12-07T01:48:17;5.97;;;3.30;;
29214;SDS011;16252;49.816;7.964;2022-12-07T01:50:47;6.82;;;4.00;;
29214;SDS011;16252;49.816;7.964;2022-12-07T01:53:15;6.05;;;3.67;;
29214;SDS011;16252;49.816;7.964;2022-12-07T01:55:42;5.57;;;3.75;;
29214;SDS011;16252;49.816;7.964;2022-12-07T02:00:38;5.93;;;3.67;;
29214;SDS011;16252;49.816;7.964;2022-12-07T02:03:09;6.13;;;3.90;;
29214;SDS011;16252;49.816;7.964;2022-12-07T02:05:40;6.38;;;3.10;;
29214;SDS011;16252;49.816;7.964;2022-12-07T02:08:07;5.60;;;3.65;;
29214;SDS011;16252;49.816;7.964;2022-12-07T02:10:34;4.95;;;3.55;;
29214;SDS011;16252;49.816;7.964;2022-12-07T02:13:04;5.35;;;3.65;;
29214;SDS011;16252;49.816;7.964;2022-12-07T02:23:56;4.82;;;3.10;;
29214;SDS011;16252;49.816;7.964;2022-12-07T02:31:55;5.65;;;3.75;;
29214;SDS011;16252;49.816;7.964;2022-12-07T02:39:59;4.45;;;3.13;;
29214;SDS011;16252;49.816;7.964;2022-12-07T02:42:32;4.50;;;3.10;;
29214;SDS011;16252;49.816;7.964;2022-12-07T02:45:03;5.53;;;3.60;;
29214;SDS011;16252;49.816;7.964;2022-12-07T02:47:31;4.95;;;3.33;;
29214;SDS011;16252;49.816;7.964;2022-12-07T02:49:59;5.28;;;3.75;;
29214;SDS011;16252;49.816;7.964;2022-12-07T02:52:24;5.57;;;3.38;;
29214;SDS011;16252;49.816;7.964;2022-12-07T02:54:50;5.18;;;3.10;;
29214;SDS011;16252;49.816;7.964;2022-12-07T03:00:11;4.57;;;3.03;;
29214;SDS011;16252;49.816;7.964;2022-12-07T03:16:19;4.78;;;3.08;;
29214;SDS011;16252;49.816;7.964;2022-12-07T03:18:49;4.95;;;3.03;;
29214;SDS011;16252;49.816;7.964;2022-12-07T03:21:20;5.78;;;3.78;;
29214;SDS011;16252;49.816;7.964;2022-12-07T03:23:51;5.15;;;3.35;;
29214;SDS011;16252;49.816;7.964;2022-12-07T03:26:20;5.22;;;3.60;;
29214;SDS011;16252;49.816;7.964;2022-12-07T03:28:51;5.17;;;3.83;;
29214;SDS011;16252;49.816;7.964;2022-12-07T03:31:28;4.85;;;3.28;;
29214;SDS011;16252;49.816;7.964;2022-12-07T03:34:02;5.15;;;3.35;;
29214;SDS011;16252;49.816;7.964;2022-12-07T03:39:48;4.72;;;3.20;;
29214;SDS011;16252;49.816;7.964;2022-12-07T03:42:23;5.13;;;3.83;;
29214;SDS011;16252;49.816;7.964;2022-12-07T03:44:49;6.20;;;3.85;;
29214;SDS011;16252;49.816;7.964;2022-12-07T03:50:02;5.20;;;3.45;;
29214;SDS011;16252;49.816;7.964;2022-12-07T03:52:42;4.97;;;3.63;;
29214;SDS011;16252;49.816;7.964;2022-12-07T03:55:26;5.88;;;3.60;;
29214;SDS011;16252;49.816;7.964;2022-12-07T03:57:55;3.85;;;3.13;;
29214;SDS011;16252;49.816;7.964;2022-12-07T04:00:25;5.10;;;3.40;;
29214;SDS011;16252;49.816;7.964;2022-12-07T04:02:51;4.57;;;3.13;;
29214;SDS011;16252;49.816;7.964;2022-12-07T04:05:18;4.53;;;3.42;;
29214;SDS011;16252;49.816;7.964;2022-12-07T04:07:43;4.35;;;3.00;;
29214;SDS011;16252;49.816;7.964;2022-12-07T04:10:09;4.68;;;3.17;;
29214;SDS011;16252;49.816;7.964;2022-12-07T04:12:35;5.10;;;3.63;;
29214;SDS011;16252;49.816;7.964;2022-12-07T04:15:00;5.03;;;3.85;;
29214;SDS011;16252;49.816;7.964;2022-12-07T04:17:25;4.68;;;3.63;;
29214;SDS011;16252;49.816;7.964;2022-12-07T04:19:51;4.55;;;3.50;;
29214;SDS011;16252;49.816;7.964;2022-12-07T04:22:16;5.45;;;3.85;;
29214;SDS011;16252;49.816;7.964;2022-12-07T04:24:41;4.63;;;3.33;;
29214;SDS011;16252;49.816;7.964;2022-12-07T04:27:06;6.10;;;3.80;;
29214;SDS011;16252;49.816;7.964;2022-12-07T04:29:32;5.25;;;3.42;;
29214;SDS011;16252;49.816;7.964;2022-12-07T04:31:57;5.95;;;4.05;;
29214;SDS011;16252;49.816;7.964;2022-12-07T04:34:22;5.50;;;3.85;;
29214;SDS011;16252;49.816;7.964;2022-12-07T04:36:48;5.53;;;3.85;;
29214;SDS011;16252;49.816;7.964;2022-12-07T04:39:23;4.80;;;3.78;;
29214;SDS011;16252;49.816;7.964;2022-12-07T04:41:51;6.03;;;3.55;;
29214;SDS011;16252;49.816;7.964;2022-12-07T04:44:17;7.47;;;4.35;;
29214;SDS011;16252;49.816;7.964;2022-12-07T04:46:43;6.68;;;4.25;;
29214;SDS011;16252;49.816;7.964;2022-12-07T04:49:09;6.35;;;4.43;;
29214;SDS011;16252;49.816;7.964;2022-12-07T04:51:34;6.35;;;4.22;;
29214;SDS011;16252;49.816;7.964;2022-12-07T04:54:00;7.82;;;4.53;;
29214;SDS011;16252;49.816;7.964;2022-12-07T04:56:25;7.72;;;5.32;;
29214;SDS011;16252;49.816;7.964;2022-12-07T04:58:51;7.97;;;5.03;;
29214;SDS011;16252;49.816;7.964;2022-12-07T05:01:18;6.72;;;4.47;;
29214;SDS011;16252;49.816;7.964;2022-12-07T05:03:44;6.75;;;4.90;;
29214;SDS011;16252;49.816;7.964;2022-12-07T05:06:09;8.60;;;5.10;;
29214;SDS011;16252;49.816;7.964;2022-12-07T05:08:36;6.55;;;4.85;;
29214;SDS011;16252;49.816;7.964;2022-12-07T05:11:03;6.65;;;4.47;;
29214;SDS011;16252;49.816;7.964;2022-12-07T05:13:29;7.05;;;5.15;;
29214;SDS011;16252;49.816;7.964;2022-12-07T05:15:54;6.85;;;4.35;;
29214;SDS011;16252;49.816;7.964;2022-12-07T05:18:20;7.93;;;4.85;;
29214;SDS011;16252;49.816;7.964;2022-12-07T05:20:45;10.93;;;5.70;;
29214;SDS011;16252;49.816;7.964;2022-12-07T05:23:11;11.13;;;5.90;;
29214;SDS011;16252;49.816;7.964;2022-12-07T05:25:36;7.47;;;4.63;;
29214;SDS011;16252;49.816;7.964;2022-12-07T05:28:02;8.02;;;5.28;;
29214;SDS011;16252;49.816;7.964;2022-12-07T05:30:28;8.07;;;5.13;;
29214;SDS011;16252;49.816;7.964;2022-12-07T05:32:53;6.47;;;4.70;;
29214;SDS011;16252;49.816;7.964;2022-12-07T05:35:19;8.00;;;4.95;;
29214;SDS011;16252;49.816;7.964;2022-12-07T05:37:44;9.05;;;4.95;;
29214;SDS011;16252;49.816;7.964;2022-12-07T05:40:10;9.10;;;5.65;;
29214;SDS011;16252;49.816;7.964;2022-12-07T05:42:37;8.25;;;5.63;;
29214;SDS011;16252;49.816;7.964;2022-12-07T05:45:02;9.10;;;5.30;;
29214;SDS011;16252;49.816;7.964;2022-12-07T05:47:28;8.85;;;5.32;;
29214;SDS011;16252;49.816;7.964;2022-12-07T05:49:54;8.18;;;5.18;;
29214;SDS011;16252;49.816;7.964;2022-12-07T05:52:19;8.48;;;5.15;;
29214;SDS011;16252;49.816;7.964;2022-12-07T05:54:44;7.40;;;5.35;;
29214;SDS011;16252;49.816;7.964;2022-12-07T05:57:10;11.52;;;6.18;;
29214;SDS011;16252;49.816;7.964;2022-12-07T05:59:35;10.15;;;6.40;;
29214;SDS011;16252;49.816;7.964;2022-12-07T06:02:05;9.43;;;5.90;;
29214;SDS011;16252;49.816;7.964;2022-12-07T06:04:34;8.30;;;5.32;;
29214;SDS011;16252;49.816;7.964;2022-12-07T06:07:01;9.50;;;6.25;;
29214;SDS011;16252;49.816;7.964;2022-12-07T06:09:27;9.88;;;6.40;;
29214;SDS011;16252;49.816;7.964;2022-12-07T06:11:53;8.30;;;6.03;;
29214;SDS011;16252;49.816;7.964;2022-12-07T06:14:38;9.40;;;6.13;;
29214;SDS011;16252;49.816;7.964;2022-12-07T06:17:04;10.02;;;6.30;;
29214;SDS011;16252;49.816;7.964;2022-12-07T06:19:29;10.93;;;6.28;;
29214;SDS011;16252;49.816;7.964;2022-12-07T06:21:55;10.38;;;6.72;;
29214;SDS011;16252;49.816;7.964;2022-12-07T06:24:20;9.38;;;5.85;;
29214;SDS011;16252;49.816;7.964;2022-12-07T06:26:46;11.02;;;5.65;;
29214;SDS011;16252;49.816;7.964;2022-12-07T06:29:11;9.40;;;6.25;;
29214;SDS011;16252;49.816;7.964;2022-12-07T06:31:37;10.23;;;6.40;;
29214;SDS011;16252;49.816;7.964;2022-12-07T06:34:04;9.50;;;5.80;;
29214;SDS011;16252;49.816;7.964;2022-12-07T06:36:31;8.85;;;5.82;;
29214;SDS011;16252;49.816;7.964;2022-12-07T06:38:57;8.60;;;5.53;;
29214;SDS011;16252;49.816;7.964;2022-12-07T06:41:22;9.38;;;5.97;;
29214;SDS011;16252;49.816;7.964;2022-12-07T06:43:48;8.48;;;5.47;;
29214;SDS011;16252;49.816;7.964;2022-12-07T06:46:14;9.40;;;5.28;;
29214;SDS011;16252;49.816;7.964;2022-12-07T06:48:40;9.57;;;6.05;;
29214;SDS011;16252;49.816;7.964;2022-12-07T06:51:06;10.82;;;6.07;;
29214;SDS011;16252;49.816;7.964;2022-12-07T06:53:32;9.73;;;6.05;;
29214;SDS011;16252;49.816;7.964;2022-12-07T06:55:57;11.45;;;6.13;;
29214;SDS011;16252;49.816;7.964;2022-12-07T06:58:23;10.13;;;6.30;;
29214;SDS011;16252;49.816;7.964;2022-12-07T07:00:48;8.88;;;5.75;;
29214;SDS011;16252;49.816;7.964;2022-12-07T07:03:17;11.40;;;7.20;;
29214;SDS011;16252;49.816;7.964;2022-12-07T07:05:42;11.80;;;6.45;;
29214;SDS011;16252;49.816;7.964;2022-12-07T07:08:09;9.30;;;6.05;;
29214;SDS011;16252;49.816;7.964;2022-12-07T07:10:34;7.75;;;5.78;;
29214;SDS011;16252;49.816;7.964;2022-12-07T07:13:00;13.10;;;6.60;;
29214;SDS011;16252;49.816;7.964;2022-12-07T07:15:25;10.18;;;6.03;;
29214;SDS011;16252;49.816;7.964;2022-12-07T07:17:50;9.27;;;5.65;;
29214;SDS011;16252;49.816;7.964;2022-12-07T07:20:16;10.20;;;6.00;;
29214;SDS011;16252;49.816;7.964;2022-12-07T07:22:41;9.20;;;6.13;;
29214;SDS011;16252;49.816;7.964;2022-12-07T07:25:07;9.65;;;5.90;;
29214;SDS011;16252;49.816;7.964;2022-12-07T07:27:32;12.05;;;6.05;;
29214;SDS011;16252;49.816;7.964;2022-12-07T07:29:57;9.23;;;6.20;;
29214;SDS011;16252;49.816;7.964;2022-12-07T07:32:22;9.68;;;6.28;;
29214;SDS011;16252;49.816;7.964;2022-12-07T07:34:48;10.73;;;6.25;;
29214;SDS011;16252;49.816;7.964;2022-12-07T07:37:13;9.75;;;6.05;;
29214;SDS011;16252;49.816;7.964;2022-12-07T07:39:39;8.80;;;5.88;;
29214;SDS011;16252;49.816;7.964;2022-12-07T07:42:05;9.13;;;5.97;;
29214;SDS011;16252;49.816;7.964;2022-12-07T07:44:32;10.32;;;5.97;;
29214;SDS011;16252;49.816;7.964;2022-12-07T07:46:57;9.00;;;5.90;;
29214;SDS011;16252;49.816;7.964;2022-12-07T07:49:23;11.30;;;6.75;;
29214;SDS011;16252;49.816;7.964;2022-12-07T07:51:48;9.55;;;5.63;;
29214;SDS011;16252;49.816;7.964;2022-12-07T07:54:13;9.50;;;5.93;;
29214;SDS011;16252;49.816;7.964;2022-12-07T07:56:38;9.70;;;5.75;;
29214;SDS011;16252;49.816;7.964;2022-12-07T07:59:04;9.10;;;5.57;;
29214;SDS011;16252;49.816;7.964;2022-12-07T08:01:29;12.32;;;6.93;;
29214;SDS011;16252;49.816;7.964;2022-12-07T08:03:54;10.82;;;6.93;;
29214;SDS011;16252;49.816;7.964;2022-12-07T08:06:19;10.77;;;6.10;;
29214;SDS011;16252;49.816;7.964;2022-12-07T08:08:45;10.50;;;6.43;;
29214;SDS011;16252;49.816;7.964;2022-12-07T08:11:10;10.35;;;6.53;;
29214;SDS011;16252;49.816;7.964;2022-12-07T08:13:36;13.45;;;6.72;;
29214;SDS011;16252;49.816;7.964;2022-12-07T08:16:05;9.80;;;6.35;;
29214;SDS011;16252;49.816;7.964;2022-12-07T08:18:36;11.40;;;6.32;;
29214;SDS011;16252;49.816;7.964;2022-12-07T08:21:03;10.30;;;6.80;;
29214;SDS011;16252;49.816;7.964;2022-12-07T08:23:30;11.10;;;7.00;;
29214;SDS011;16252;49.816;7.964;2022-12-07T08:25:59;10.57;;;6.90;;
29214;SDS011;16252;49.816;7.964;2022-12-07T08:28:26;10.77;;;6.57;;
29214;SDS011;16252;49.816;7.964;2022-12-07T08:30:52;9.95;;;5.75;;
29214;SDS011;16252;49.816;7.964;2022-12-07T08:33:17;12.90;;;6.53;;
29214;SDS011;16252;49.816;7.964;2022-12-07T08:35:42;10.38;;;6.57;;
29214;SDS011;16252;49.816;7.964;2022-12-07T08:38:07;11.07;;;7.05;;
29214;SDS011;16252;49.816;7.964;2022-12-07T08:40:33;12.05;;;7.00;;
29214;SDS011;16252;49.816;7.964;2022-12-07T08:42:58;12.07;;;7.32;;
29214;SDS011;16252;49.816;7.964;2022-12-07T08:45:23;12.75;;;7.57;;
29214;SDS011;16252;49.816;7.964;2022-12-07T08:47:50;11.15;;;6.57;;
29214;SDS011;16252;49.816;7.964;2022-12-07T08:50:20;13.57;;;6.97;;
29214;SDS011;16252;49.816;7.964;2022-12-07T08:52:48;10.90;;;6.53;;
29214;SDS011;16252;49.816;7.964;2022-12-07T08:55:17;9.93;;;6.32;;
29214;SDS011;16252;49.816;7.964;2022-12-07T08:57:42;13.30;;;6.25;;
29214;SDS011;16252;49.816;7.964;2022-12-07T09:00:08;8.48;;;5.47;;
29214;SDS011;16252;49.816;7.964;2022-12-07T09:02:34;10.10;;;5.47;;
29214;SDS011;16252;49.816;7.964;2022-12-07T09:04:59;8.80;;;5.88;;
29214;SDS011;16252;49.816;7.964;2022-12-07T09:07:25;10.13;;;6.15;;
29214;SDS011;16252;49.816;7.964;2022-12-07T09:09:51;10.00;;;5.95;;
29214;SDS011;16252;49.816;7.964;2022-12-07T09:12:16;8.13;;;5.28;;
29214;SDS011;16252;49.816;7.964;2022-12-07T09:14:41;8.43;;;5.53;;
29214;SDS011;16252;49.816;7.964;2022-12-07T09:17:08;9.30;;;5.68;;
29214;SDS011;16252;49.816;7.964;2022-12-07T09:19:35;7.50;;;4.95;;
29214;SDS011;16252;49.816;7.964;2022-12-07T09:22:00;8.57;;;4.70;;
29214;SDS011;16252;49.816;7.964;2022-12-07T09:24:26;6.20;;;4.10;;
29214;SDS011;16252;49.816;7.964;2022-12-07T09:26:51;9.50;;;4.15;;
29214;SDS011;16252;49.816;7.964;2022-12-07T09:29:16;6.05;;;3.63;;
29214;SDS011;16252;49.816;7.964;2022-12-07T09:31:41;6.60;;;3.72;;
29214;SDS011;16252;49.816;7.964;2022-12-07T09:34:07;4.68;;;3.30;;
29214;SDS011;16252;49.816;7.964;2022-12-07T09:36:32;4.68;;;3.25;;
29214;SDS011;16252;49.816;7.964;2022-12-07T09:38:58;5.20;;;3.72;;
29214;SDS011;16252;49.816;7.964;2022-12-07T09:41:24;5.95;;;3.40;;
29214;SDS011;16252;49.816;7.964;2022-12-07T09:43:52;5.82;;;3.72;;
29214;SDS011;16252;49.816;7.964;2022-12-07T09:48:47;5.50;;;2.97;;
29214;SDS011;16252;49.816;7.964;2022-12-07T09:53:41;3.45;;;2.45;;
29214;SDS011;16252;49.816;7.964;2022-12-07T09:56:08;4.07;;;2.47;;
29214;SDS011;16252;49.816;7.964;2022-12-07T09:58:42;3.70;;;2.60;;
29214;SDS011;16252;49.816;7.964;2022-12-07T10:01:11;6.07;;;2.67;;
29214;SDS011;16252;49.816;7.964;2022-12-07T10:03:40;5.22;;;2.65;;
29214;SDS011;16252;49.816;7.964;2022-12-07T10:06:13;3.40;;;2.60;;
29214;SDS011;16252;49.816;7.964;2022-12-07T10:08:39;4.47;;;2.90;;
29214;SDS011;16252;49.816;7.964;2022-12-07T10:11:06;4.10;;;2.47;;
29214;SDS011;16252;49.816;7.964;2022-12-07T10:18:51;3.65;;;2.55;;
29214;SDS011;16252;49.816;7.964;2022-12-07T10:21:18;3.85;;;2.70;;
29214;SDS011;16252;49.816;7.964;2022-12-07T10:29:20;4.47;;;2.42;;
29214;SDS011;16252;49.816;7.964;2022-12-07T10:31:47;3.50;;;2.47;;
29214;SDS011;16252;49.816;7.964;2022-12-07T10:34:23;6.15;;;2.75;;
29214;SDS011;16252;49.816;7.964;2022-12-07T10:36:55;4.20;;;2.58;;
29214;SDS011;16252;49.816;7.964;2022-12-07T10:39:41;3.97;;;2.47;;
29214;SDS011;16252;49.816;7.964;2022-12-07T10:42:17;3.47;;;2.35;;
29214;SDS011;16252;49.816;7.964;2022-12-07T10:44:44;5.82;;;3.00;;
29214;SDS011;16252;49.816;7.964;2022-12-07T10:47:27;3.80;;;2.53;;
29214;SDS011;16252;49.816;7.964;2022-12-07T10:53:04;3.53;;;2.28;;
29214;SDS011;16252;49.816;7.964;2022-12-07T10:55:47;2.85;;;2.00;;
29214;SDS011;16252;49.816;7.964;2022-12-07T10:58:37;3.40;;;1.88;;
29214;SDS011;16252;49.816;7.964;2022-12-07T11:04:34;3.80;;;2.10;;
29214;SDS011;16252;49.816;7.964;2022-12-07T11:07:25;4.40;;;2.55;;
29214;SDS011;16252;49.816;7.964;2022-12-07T11:10:39;4.43;;;2.63;;
29214;SDS011;16252;49.816;7.964;2022-12-07T11:13:18;4.18;;;2.63;;
29214;SDS011;16252;49.816;7.964;2022-12-07T11:22:09;5.18;;;3.10;;
29214;SDS011;16252;49.816;7.964;2022-12-07T11:24:40;9.63;;;4.70;;
29214;SDS011;16252;49.816;7.964;2022-12-07T11:27:19;6.35;;;2.55;;
29214;SDS011;16252;49.816;7.964;2022-12-07T11:29:59;6.68;;;3.00;;
29214;SDS011;16252;49.816;7.964;2022-12-07T11:35:24;4.32;;;2.78;;
29214;SDS011;16252;49.816;7.964;2022-12-07T11:37:55;5.40;;;2.97;;
29214;SDS011;16252;49.816;7.964;2022-12-07T11:40:26;3.92;;;2.60;;
29214;SDS011;16252;49.816;7.964;2022-12-07T11:42:58;5.47;;;2.60;;
29214;SDS011;16252;49.816;7.964;2022-12-07T11:45:31;5.47;;;2.72;;
29214;SDS011;16252;49.816;7.964;2022-12-07T11:50:41;3.45;;;1.98;;
29214;SDS011;16252;49.816;7.964;2022-12-07T11:56:01;2.63;;;1.98;;
29214;SDS011;16252;49.816;7.964;2022-12-07T12:03:44;2.85;;;2.00;;
29214;SDS011;16252;49.816;7.964;2022-12-07T12:06:14;5.78;;;1.90;;
29214;SDS011;16252;49.816;7.964;2022-12-07T12:08:47;3.08;;;1.77;;
29214;SDS011;16252;49.816;7.964;2022-12-07T12:16:49;3.40;;;1.50;;
29214;SDS011;16252;49.816;7.964;2022-12-07T12:19:29;4.70;;;1.77;;
29214;SDS011;16252;49.816;7.964;2022-12-07T12:22:18;2.50;;;1.30;;
29214;SDS011;16252;49.816;7.964;2022-12-07T12:24:47;1.73;;;1.23;;
29214;SDS011;16252;49.816;7.964;2022-12-07T12:27:27;5.85;;;1.63;;
29214;SDS011;16252;49.816;7.964;2022-12-07T12:29:57;4.57;;;1.45;;
29214;SDS011;16252;49.816;7.964;2022-12-07T12:32:32;2.77;;;1.70;;
29214;SDS011;16252;49.816;7.964;2022-12-07T12:35:20;2.25;;;1.50;;
29214;SDS011;16252;49.816;7.964;2022-12-07T12:41:22;2.70;;;1.40;;
29214;SDS011;16252;49.816;7.964;2022-12-07T12:44:00;2.15;;;1.52;;
29214;SDS011;16252;49.816;7.964;2022-12-07T12:51:57;2.72;;;1.88;;
29214;SDS011;16252;49.816;7.964;2022-12-07T12:54:28;2.20;;;1.50;;
29214;SDS011;16252;49.816;7.964;2022-12-07T12:59:30;4.82;;;1.50;;
29214;SDS011;16252;49.816;7.964;2022-12-07T13:02:09;6.35;;;1.52;;
29214;SDS011;16252;49.816;7.964;2022-12-07T13:04:49;2.95;;;1.35;;
29214;SDS011;16252;49.816;7.964;2022-12-07T13:10:21;2.95;;;1.30;;
29214;SDS011;16252;49.816;7.964;2022-12-07T13:12:55;1.75;;;1.25;;
29214;SDS011;16252;49.816;7.964;2022-12-07T13:15:31;4.05;;;1.23;;
29214;SDS011;16252;49.816;7.964;2022-12-07T13:17:58;2.58;;;1.27;;
29214;SDS011;16252;49.816;7.964;2022-12-07T13:23:16;2.60;;;1.23;;
29214;SDS011;16252;49.816;7.964;2022-12-07T13:28:38;3.90;;;2.00;;
29214;SDS011;16252;49.816;7.964;2022-12-07T13:33:37;2.22;;;1.30;;
29214;SDS011;16252;49.816;7.964;2022-12-07T13:36:03;4.22;;;1.80;;
29214;SDS011;16252;49.816;7.964;2022-12-07T13:38:32;4.95;;;2.40;;
29214;SDS011;16252;49.816;7.964;2022-12-07T13:41:04;3.17;;;2.25;;
29214;SDS011;16252;49.816;7.964;2022-12-07T13:43:29;4.68;;;2.05;;
29214;SDS011;16252;49.816;7.964;2022-12-07T13:45:58;3.80;;;2.60;;
29214;SDS011;16252;49.816;7.964;2022-12-07T13:48:36;4.28;;;2.90;;
29214;SDS011;16252;49.816;7.964;2022-12-07T13:51:14;3.78;;;2.70;;
29214;SDS011;16252;49.816;7.964;2022-12-07T13:53:46;4.60;;;3.13;;
29214;SDS011;16252;49.816;7.964;2022-12-07T13:56:16;5.30;;;2.60;;
29214;SDS011;16252;49.816;7.964;2022-12-07T14:01:08;2.97;;;2.10;;
29214;SDS011;16252;49.816;7.964;2022-12-07T14:03:35;6.50;;;2.40;;
29214;SDS011;16252;49.816;7.964;2022-12-07T14:08:31;2.95;;;1.80;;
29214;SDS011;16252;49.816;7.964;2022-12-07T14:10:56;3.50;;;2.10;;
29214;SDS011;16252;49.816;7.964;2022-12-07T14:13:30;3.05;;;1.83;;
29214;SDS011;16252;49.816;7.964;2022-12-07T14:15:56;3.17;;;1.83;;
29214;SDS011;16252;49.816;7.964;2022-12-07T14:23:30;1.63;;;1.30;;
29214;SDS011;16252;49.816;7.964;2022-12-07T14:26:05;2.58;;;1.60;;
29214;SDS011;16252;49.816;7.964;2022-12-07T14:28:41;3.08;;;2.15;;
29214;SDS011;16252;49.816;7.964;2022-12-07T14:31:11;6.50;;;2.92;;
29214;SDS011;16252;49.816;7.964;2022-12-07T14:33:39;2.90;;;2.55;;
29214;SDS011;16252;49.816;7.964;2022-12-07T14:36:05;3.63;;;2.17;;
29214;SDS011;16252;49.816;7.964;2022-12-07T14:38:30;3.38;;;2.80;;
29214;SDS011;16252;49.816;7.964;2022-12-07T14:40:56;2.75;;;1.98;;
29214;SDS011;16252;49.816;7.964;2022-12-07T14:43:44;3.05;;;1.85;;
29214;SDS011;16252;49.816;7.964;2022-12-07T14:46:09;4.60;;;1.77;;
29214;SDS011;16252;49.816;7.964;2022-12-07T14:48:35;2.40;;;1.38;;
29214;SDS011;16252;49.816;7.964;2022-12-07T14:51:00;1.80;;;1.10;;
29214;SDS011;16252;49.816;7.964;2022-12-07T14:53:30;2.30;;;1.42;;
29214;SDS011;16252;49.816;7.964;2022-12-07T14:55:59;3.38;;;1.20;;
29214;SDS011;16252;49.816;7.964;2022-12-07T14:58:25;3.35;;;1.73;;
29214;SDS011;16252;49.816;7.964;2022-12-07T15:00:50;6.72;;;3.78;;
29214;SDS011;16252;49.816;7.964;2022-12-07T15:03:15;6.13;;;4.07;;
29214;SDS011;16252;49.816;7.964;2022-12-07T15:05:41;6.25;;;3.30;;
29214;SDS011;16252;49.816;7.964;2022-12-07T15:08:08;3.65;;;2.38;;
29214;SDS011;16252;49.816;7.964;2022-12-07T15:10:34;3.55;;;2.65;;
29214;SDS011;16252;49.816;7.964;2022-12-07T15:13:03;3.70;;;2.22;;
29214;SDS011;16252;49.816;7.964;2022-12-07T15:15:48;2.70;;;2.15;;
29214;SDS011;16252;49.816;7.964;2022-12-07T15:18:15;3.13;;;2.03;;
29214;SDS011;16252;49.816;7.964;2022-12-07T15:20:40;5.93;;;2.42;;
29214;SDS011;16252;49.816;7.964;2022-12-07T15:23:06;3.10;;;1.80;;
29214;SDS011;16252;49.816;7.964;2022-12-07T15:25:31;2.88;;;1.90;;
29214;SDS011;16252;49.816;7.964;2022-12-07T15:27:57;5.07;;;2.53;;
29214;SDS011;16252;49.816;7.964;2022-12-07T15:30:22;9.43;;;4.97;;
29214;SDS011;16252;49.816;7.964;2022-12-07T15:32:50;12.93;;;10.05;;
29214;SDS011;16252;49.816;7.964;2022-12-07T15:35:16;10.93;;;7.35;;
29214;SDS011;16252;49.816;7.964;2022-12-07T15:37:42;5.07;;;4.05;;
29214;SDS011;16252;49.816;7.964;2022-12-07T15:40:07;5.95;;;3.78;;
29214;SDS011;16252;49.816;7.964;2022-12-07T15:42:34;4.38;;;2.80;;
29214;SDS011;16252;49.816;7.964;2022-12-07T15:45:00;5.45;;;2.53;;
29214;SDS011;16252;49.816;7.964;2022-12-07T15:47:29;4.20;;;2.65;;
29214;SDS011;16252;49.816;7.964;2022-12-07T15:49:55;7.03;;;2.67;;
29214;SDS011;16252;49.816;7.964;2022-12-07T15:52:20;5.85;;;2.65;;
29214;SDS011;16252;49.816;7.964;2022-12-07T15:54:46;3.83;;;2.42;;
29214;SDS011;16252;49.816;7.964;2022-12-07T15:57:12;4.00;;;2.67;;
29214;SDS011;16252;49.816;7.964;2022-12-07T15:59:37;5.63;;;2.47;;
29214;SDS011;16252;49.816;7.964;2022-12-07T16:02:03;3.08;;;2.30;;
29214;SDS011;16252;49.816;7.964;2022-12-07T16:04:28;4.28;;;2.58;;
29214;SDS011;16252;49.816;7.964;2022-12-07T16:06:54;4.05;;;2.42;;
29214;SDS011;16252;49.816;7.964;2022-12-07T16:09:20;3.75;;;2.28;;
29214;SDS011;16252;49.816;7.964;2022-12-07T16:11:46;4.30;;;2.22;;
29214;SDS011;16252;49.816;7.964;2022-12-07T16:14:11;5.90;;;2.58;;
29214;SDS011;16252;49.816;7.964;2022-12-07T16:16:37;4.10;;;2.40;;
29214;SDS011;16252;49.816;7.964;2022-12-07T16:19:02;2.97;;;2.28;;
29214;SDS011;16252;49.816;7.964;2022-12-07T16:21:27;2.58;;;2.03;;
29214;SDS011;16252;49.816;7.964;2022-12-07T16:23:53;4.13;;;2.75;;
29214;SDS011;16252;49.816;7.964;2022-12-07T16:26:19;4.70;;;3.08;;
29214;SDS011;16252;49.816;7.964;2022-12-07T16:28:48;5.25;;;3.60;;
29214;SDS011;16252;49.816;7.964;2022-12-07T16:31:15;5.97;;;3.70;;
29214;SDS011;16252;49.816;7.964;2022-12-07T16:33:43;5.95;;;3.65;;
29214;SDS011;16252;49.816;7.964;2022-12-07T16:36:10;6.93;;;4.38;;
29214;SDS011;16252;49.816;7.964;2022-12-07T16:38:36;5.90;;;3.85;;
29214;SDS011;16252;49.816;7.964;2022-12-07T16:41:02;4.80;;;3.60;;
29214;SDS011;16252;49.816;7.964;2022-12-07T16:43:28;4.68;;;3.30;;
29214;SDS011;16252;49.816;7.964;2022-12-07T16:45:54;5.00;;;3.28;;
29214;SDS011;16252;49.816;7.964;2022-12-07T16:48:19;4.55;;;3.75;;
29214;SDS011;16252;49.816;7.964;2022-12-07T16:50:45;6.47;;;3.92;;
29214;SDS011;16252;49.816;7.964;2022-12-07T16:53:12;5.53;;;3.60;;
29214;SDS011;16252;49.816;7.964;2022-12-07T16:55:38;7.80;;;4.85;;
29214;SDS011;16252;49.816;7.964;2022-12-07T16:58:04;8.43;;;4.60;;
29214;SDS011;16252;49.816;7.964;2022-12-07T17:00:30;9.75;;;5.43;;